Latest Coastal Weather Observations for Wynyard

IDT60701

Issued at 11:03 am EST Thursday 25 August 2016 (issued every 10 minutes, with the page automatically refreshed every 10 minutes)

About coastal observations | Map of coastal stations | Coastal observations for TAS | Marine services | Other Formats
Station Details ID: 091107 Name: WYNYARD AIRPORT Lat: -41.00 Lon: 145.73 Height: 12.0 m
Data from the previous 72 hours. | See also: Recent months at Wynyard
Date/Time
EST
Temp
°C
Wind Pressure Rain since
9am
mm
Weather Cloud Vis
km
Sea
Height
m
Swell
Dir  Spd
kts
Gust
kts
hPa Trend Height
m
Period
s
Dir
25/11:00am 12.2 S 8 14 1012.5 - 0.0 - Partly cloudy 10 - - - -
25/10:30am 11.5 SSW 7 12 1012.4 - 0.0 - - 10 - - - -
25/10:00am 10.4 ESE 2 5 1012.4 - 0.0 - - 10 - - - -
25/09:30am 9.1 NNW 3 6 1012.4 - 0.0 - - 10 - - - -
25/09:00am 7.5 NW 5 7 1012.4 - 0.0 - - 10 - - - -
25/08:30am 5.3 W 6 7 1012.2 - 0.0 - - 10 - - - -
25/08:00am 2.2 WSW 5 6 1012.2 - 0.0 - - 10 - - - -
25/07:30am 1.0 W 6 7 1011.8 - 0.0 - - 10 - - - -
25/07:00am -0.8 W 5 6 1011.5 - 0.0 - - 10 - - - -
25/06:30am 1.0 NW 4 6 1011.1 - 0.0 - - 10 - - - -
25/06:00am 0.4 WNW 4 5 1010.9 - 0.0 - - 10 - - - -
25/05:30am 0.7 WNW 1 4 1010.5 - 0.0 - - 10 - - - -
25/05:00am 0.8 WSW 5 5 1010.3 - 0.0 - - 10 - - - -
25/04:30am 1.7 NW 6 7 1010.2 - 0.0 - - 10 - - - -
25/04:00am 0.7 WSW 7 8 1010.2 - 0.0 - - 10 - - - -
25/03:30am 2.5 WNW 7 8 1010.2 - 0.0 - - 10 - - - -
25/03:00am 3.2 NW 7 9 1010.2 - 0.0 - - 10 - - - -
25/02:30am 1.0 W 4 5 1010.3 - 0.0 - - 10 - - - -
25/02:00am 2.1 W 9 9 1010.4 - 0.0 - - 10 - - - -
25/01:30am 2.2 W 9 11 1010.6 - 0.0 - - 10 - - - -
25/01:00am 2.1 WNW 9 10 1010.7 - 0.0 - - 10 - - - -
25/12:30am 2.4 WNW 6 8 1010.9 - 0.0 - Partly cloudy 10 - - - -
25/12:00am 4.4 WNW 3 4 1011.0 - 0.0 - Cloudy 10 - - - -
 
Date/Time
EST
Temp
°C
Wind Pressure Rain since
9am
mm
Weather Cloud Vis
km
Sea
Height
m
Swell
Dir  Spd
kts
Gust
kts
hPa Trend Height
m
Period
s
Dir
24/11:30pm 3.5 W 5 7 1011.0 - 0.0 - Cloudy 10 - - - -
24/11:00pm 3.3 WSW 5 7 1011.2 - 0.0 - Cloudy 10 - - - -
24/10:30pm 2.6 W 5 6 1011.3 - 0.0 - - 10 - - - -
24/10:00pm 3.6 CALM 0 0 1011.6 - 0.0 - - 10 - - - -
24/09:30pm 3.0 SSE 4 5 1011.7 - 0.0 - - 10 - - - -
24/09:00pm 4.1 CALM 0 2 1011.8 - 0.0 - Partly cloudy 10 - - - -
24/08:30pm 4.4 SW 3 4 1011.9 - 0.0 - Partly cloudy 10 - - - -
24/08:00pm 6.1 N 3 4 1012.1 - 0.0 - Partly cloudy 10 - - - -
24/07:30pm 6.1 CALM 0 0 1012.3 - 0.0 - - 10 - - - -
24/07:00pm 6.8 NW 2 3 1012.1 - 0.0 - - 10 - - - -
24/06:30pm 7.4 WSW 7 9 1011.9 - 0.0 - - 10 - - - -
24/06:00pm 8.0 WSW 7 11 1011.7 - 0.0 - - 10 - - - -
24/05:30pm 9.4 WSW 11 14 1011.7 - 0.0 - - 10 - - - -
24/05:00pm 10.4 WSW 10 15 1011.6 - 0.0 - - 10 - - - -
24/04:30pm 11.4 WSW 11 15 1011.5 - 0.0 - - 10 - - - -
24/04:00pm 12.3 W 13 17 1011.4 - 0.0 - Partly cloudy 10 - - - -
24/03:30pm 12.6 WSW 13 16 1011.4 - 0.0 - Partly cloudy 10 - - - -
24/03:00pm 12.2 SW 11 17 1011.3 - 0.0 - Partly cloudy 10 - - - -
24/02:30pm 13.9 WSW 9 15 1011.3 - 0.0 - Partly cloudy 10 - - - -
24/02:00pm 12.3 W 11 14 1011.5 - 0.0 - Partly cloudy 10 - - - -
24/01:30pm 12.5 W 12 16 1012.0 - 0.0 - Partly cloudy 10 - - - -
24/01:00pm 12.0 SW 10 15 1012.5 - 0.0 - Partly cloudy 10 - - - -
24/12:30pm 12.8 SW 7 13 1012.8 - 0.0 - Partly cloudy 10 - - - -
24/12:00pm 11.9 WSW 7 11 1013.4 - 0.0 - Partly cloudy 10 - - - -
24/11:30am 11.4 SSW 6 9 1013.9 - 0.0 - Partly cloudy 10 - - - -
24/11:00am 11.0 SW 8 12 1014.3 - 0.0 - Partly cloudy 10 - - - -
24/10:30am 11.0 SW 9 12 1014.5 - 0.0 - - 10 - - - -
24/10:00am 10.0 WSW 7 11 1014.8 - 0.0 - - 10 - - - -
24/09:30am 9.0 WSW 7 10 1015.1 - 0.0 - Partly cloudy 10 - - - -
24/09:00am 7.4 W 8 9 1015.3 - 0.2 - Mostly clear 10 - - - -
24/08:30am 4.7 WNW 4 6 1015.5 - 0.2 - - 10 - - - -
24/08:00am 1.7 WSW 4 6 1015.7 - 0.2 - - 10 - - - -
24/07:30am -0.2 WSW 5 6 1015.7 - 0.0 - - 10 - - - -
24/07:00am -0.4 WSW 3 4 1015.8 - 0.0 - - 10 - - - -
24/06:30am -1.2 W 5 6 1015.7 - 0.0 - - 10 - - - -
24/06:00am -1.1 WNW 6 7 1015.6 - 0.0 - - 10 - - - -
24/05:30am -0.1 NW 5 6 1015.4 - 0.0 - - 10 - - - -
24/05:00am 0.0 WNW 5 6 1015.3 - 0.0 - - 10 - - - -
24/04:30am -0.6 W 4 6 1015.2 - 0.0 - - 10 - - - -
24/04:00am -0.1 WNW 5 6 1015.2 - 0.0 - - 10 - - - -
24/03:30am -0.4 W 4 5 1015.2 - 0.0 - - 10 - - - -
24/03:00am -0.8 WSW 5 6 1015.3 - 0.0 - - 10 - - - -
24/02:30am -0.7 W 5 6 1015.7 - 0.0 - - 10 - - - -
24/02:00am -0.1 WSW 5 6 1015.9 - 0.0 - - 8 - - - -
24/01:30am 0.8 WSW 5 6 1015.9 - 0.0 - - 10 - - - -
24/01:00am 0.9 WNW 5 6 1016.0 - 0.0 - - 10 - - - -
24/12:30am 1.1 WSW 3 4 1016.2 - 0.0 - - 10 - - - -
24/12:00am 2.1 SSW 3 5 1016.5 - 0.0 - - 10 - - - -
 
Date/Time
EST
Temp
°C
Wind Pressure Rain since
9am
mm
Weather Cloud Vis
km
Sea
Height
m
Swell
Dir  Spd
kts
Gust
kts
hPa Trend Height
m
Period
s
Dir
23/11:30pm 1.8 WSW 4 5 1016.9 - 0.0 - - 10 - - - -
23/11:00pm 1.8 W 6 7 1017.1 - 0.0 - - 10 - - - -
23/10:30pm 2.6 WNW 5 6 1017.3 - 0.0 - - 10 - - - -
23/10:00pm 2.4 WSW 4 5 1017.4 - 0.0 - - 10 - - - -
23/09:30pm 2.4 W 6 7 1017.3 - 0.0 - - 10 - - - -
23/09:00pm 4.2 W 3 4 1017.2 - 0.0 - - 10 - - - -
23/08:30pm 4.3 WSW 6 7 1016.9 - 0.0 - - 10 - - - -
23/08:00pm 4.4 WSW 7 9 1016.8 - 0.0 - - 10 - - - -
23/07:30pm 4.4 WSW 8 9 1016.7 - 0.0 - - 10 - - - -
23/07:00pm 5.7 WSW 8 9 1016.6 - 0.0 - - 10 - - - -
23/06:30pm 6.8 WSW 8 9 1016.2 - 0.0 - - 10 - - - -
23/06:00pm 7.6 WSW 8 9 1015.9 - 0.0 - - 10 - - - -
23/05:30pm 8.8 WSW 7 8 1015.6 - 0.0 - - 10 - - - -
23/05:00pm 11.6 W 8 11 1015.3 - 0.0 - Partly cloudy 10 - - - -
23/04:30pm 12.5 SSW 8 13 1015.0 - 0.0 - Partly cloudy 10 - - - -
23/04:00pm 12.5 SW 11 16 1014.7 - 0.0 - Partly cloudy 10 - - - -
23/03:30pm 12.5 SW 12 18 1014.5 - 0.0 - - 10 - - - -
23/03:00pm 12.0 SSW 11 16 1014.3 - 0.0 - Mostly clear 10 - - - -
23/02:30pm 12.7 SSW 10 15 1014.1 - 0.0 - Partly cloudy 10 - - - -
23/02:00pm 12.8 SSW 11 15 1014.3 - 0.0 - Partly cloudy 10 - - - -
23/01:30pm 12.4 SSW 8 14 1014.4 - 0.0 - Partly cloudy 10 - - - -
23/01:00pm 12.7 SW 10 13 1014.7 - 0.0 - Partly cloudy 10 - - - -
23/12:30pm 12.5 SSW 10 13 1015.1 - 0.0 - Partly cloudy 10 - - - -
23/12:00pm 11.7 WSW 12 17 1015.4 - 0.0 - Partly cloudy 10 - - - -
23/11:30am 11.4 SW 11 16 1015.8 - 0.0 - Partly cloudy 10 - - - -
23/11:00am 11.5 SW 10 17 1016.0 - 0.0 - Partly cloudy 10 - - - -
23/10:30am 10.3 WSW 9 14 1016.1 - 0.0 - - 10 - - - -
23/10:00am 9.3 NW 7 9 1016.1 - 0.0 - - 10 - - - -
23/09:30am 7.5 W 5 6 1016.2 - 0.0 - - 10 - - - -
23/09:00am 5.0 W 4 5 1016.3 - 1.6 - - 10 - - - -
23/08:30am 3.0 WNW 5 7 1016.2 - 1.6 - - 10 - - - -
23/08:00am 0.5 WSW 5 6 1016.2 - 1.6 - - 10 - - - -
23/07:30am -0.9 SW 4 5 1015.8 - 1.4 - - 10 - - - -
23/07:00am -1.8 W 5 7 1015.5 - 1.4 - - 10 - - - -
23/06:30am -1.5 W 4 5 1015.3 - 1.4 - - 10 - - - -
23/06:00am -1.1 W 5 6 1015.0 - 1.4 - - 10 - - - -
23/05:30am -1.4 WSW 6 8 1014.9 - 1.4 - - 10 - - - -
23/05:00am -1.3 W 5 7 1014.8 - 1.4 - - 10 - - - -
23/04:30am -0.4 WSW 6 7 1014.8 - 1.4 - - 10 - - - -
23/04:00am -0.5 W 5 7 1014.6 - 1.4 - - 10 - - - -
23/03:30am -0.1 WNW 5 6 1014.6 - 1.4 - - 9 - - - -
23/03:22am 0.2 W 5 6 1014.7 - 1.4 - - 10 - - - -
23/03:04am -0.3 WSW 5 6 1014.8 - 1.4 - - 5 - - - -
23/03:00am -0.3 WSW 5 6 1014.8 - 1.4 - - 10 - - - -
23/02:30am 1.0 W 3 4 1015.0 - 1.4 - - 8 - - - -
23/02:00am 1.1 W 3 4 1015.3 - 1.4 - - 10 - - - -
23/01:39am 0.1 SW 5 6 1015.4 - 1.4 - - 8 - - - -
23/01:30am -0.1 SW 5 6 1015.4 - 1.4 - - 6 - - - -
23/01:19am 0.5 WSW 4 5 1015.5 - 1.4 - - 5 - - - -
23/01:14am 0.8 W 4 4 1015.5 - 1.4 - - 8 - - - -
23/01:00am 1.6 WNW 3 3 1015.5 - 1.4 - - 5 - - - -
23/12:30am 1.7 WNW 3 4 1015.3 - 1.4 - - 5 - - - -
23/12:28am 1.8 WNW 3 4 1015.3 - 1.4 - - 5 - - - -
23/12:00am 1.4 CALM 0 0 1015.2 - 1.4 - - 10 - - - -
 
Date/Time
EST
Temp
°C
Wind Pressure Rain since
9am
mm
Weather Cloud Vis
km
Sea
Height
m
Swell
Dir  Spd
kts
Gust
kts
hPa Trend Height
m
Period
s
Dir
22/11:30pm 1.9 SW 3 4 1015.2 - 1.4 - - 10 - - - -
22/11:00pm 2.0 SW 3 5 1015.2 - 1.4 - - 10 - - - -
22/10:30pm 2.6 CALM 0 0 1015.0 - 1.4 - - 10 - - - -
22/10:00pm 3.3 SW 4 5 1015.0 - 1.4 - - 10 - - - -
22/09:30pm 2.9 W 4 4 1014.9 - 1.4 - - 10 - - - -
22/09:00pm 4.3 CALM 0 0 1014.6 - 1.4 - - 10 - - - -
22/08:30pm 3.0 W 4 5 1014.4 - 1.4 - - 10 - - - -
22/08:00pm 3.9 W 6 7 1014.2 - 1.4 - - 10 - - - -
22/07:30pm 4.7 W 6 7 1014.0 - 1.4 - - 10 - - - -
22/07:00pm 5.2 W 7 9 1013.7 - 1.4 - - 10 - - - -
22/06:30pm 7.1 W 9 11 1013.4 - 1.4 - Partly cloudy 10 - - - -
22/06:00pm 6.9 W 8 11 1013.0 - 1.4 - - 10 - - - -
22/05:30pm 9.1 W 9 10 1012.6 - 1.4 - - 10 - - - -
22/05:00pm 10.0 W 11 13 1012.3 - 1.4 - Partly cloudy 10 - - - -
22/04:30pm 10.9 W 13 16 1012.0 - 1.4 - - 10 - - - -
22/04:00pm 11.3 WSW 9 13 1011.9 - 1.4 - Partly cloudy 10 - - - -
22/03:30pm 12.1 WSW 8 10 1011.8 - 1.4 - Partly cloudy 10 - - - -
22/03:00pm 11.4 WSW 9 13 1011.9 - 1.4 - Partly cloudy 10 - - - -
22/02:30pm 10.2 W 8 13 1012.0 - 1.4 - Partly cloudy 10 - - - -
22/02:06pm 9.4 W 8 11 1012.1 - 1.4 - Partly cloudy 10 - - - -
22/02:00pm 9.5 WSW 7 10 1012.1 - 1.4 - Partly cloudy 10 - - - -
22/01:48pm 8.4 W 12 20 1012.2 - 1.0 - Partly cloudy 5 - - - -
22/01:30pm 11.1 WNW 9 12 1012.1 - 0.0 - Partly cloudy 10 - - - -
22/01:00pm 9.8 WSW 15 22 1012.4 - 0.0 - Partly cloudy 10 - - - -
22/12:49pm 11.0 W 13 28 1012.2 - 0.0 - Partly cloudy 10 - - - -
22/12:30pm 11.1 W 12 19 1012.2 - 0.0 - Partly cloudy 10 - - - -
22/12:00pm 12.5 W 14 20 1012.4 - 0.0 - Mostly clear 10 - - - -
22/11:30am 12.1 W 15 19 1012.7 - 0.0 - - 10 - - - -

Other Formats:

Comma delimited format used in spreadsheet applications
http://www.bom.gov.au/fwo/IDT60701/IDT60701.95957.axf

JavaScript Object Notation format (JSON) in row-major order
http://www.bom.gov.au/fwo/IDT60701/IDT60701.95957.json